Time;durP1;ratioP1;P1;durP2;ratioP2;P2;SDS_P1;SDS_P2;PMS_P1;PMS_P2;Temp;Humidity;BMP_temperature;BMP_pressure;BME280_temperature;BME280_humidity;BME280_pressure;Samples;Min_cycle;Max_cycle;Signal;HPM_P1;HPM_P2
2021/12/02 00:01:03;;;;;;;3.00;1.40;;;;;;;4.82;93.71;97299.06;4500720;31;20393;-73
2021/12/02 00:03:31;;;;;;;2.35;1.23;;;;;;;4.83;93.26;97310.25;4500698;31;20100;-73
2021/12/02 00:05:58;;;;;;;2.35;1.20;;;;;;;4.76;93.82;97305.63;4500483;31;20158;-73
2021/12/02 00:08:25;;;;;;;2.72;2.08;;;;;;;4.84;93.54;97307.53;4500716;31;20167;-73
2021/12/02 00:10:53;;;;;;;2.08;1.00;;;;;;;4.90;93.00;97317.34;4500707;31;20096;-73
2021/12/02 00:13:24;;;;;;;2.70;1.25;;;;;;;4.90;93.10;97322.53;4500768;31;20124;-73
2021/12/02 00:21:21;;;;;;;3.40;1.00;;;;;;;5.11;91.51;97317.22;4466333;32;20220;-73
2021/12/02 00:24:05;;;;;;;2.47;2.25;;;;;;;5.14;91.26;97326.50;4466754;32;20101;-73
2021/12/02 00:26:35;;;;;;;2.70;1.40;;;;;;;5.25;90.59;97325.53;4466311;32;20088;-73
2021/12/02 00:29:05;;;;;;;1.95;1.20;;;;;;;5.24;90.77;97321.28;4466497;32;20113;-73
2021/12/02 00:31:34;;;;;;;2.92;1.48;;;;;;;5.31;90.18;97323.22;4466585;32;20109;-73
2021/12/02 00:34:07;;;;;;;6.55;1.30;;;;;;;5.37;89.62;97324.41;4466486;32;20897;-73
2021/12/02 00:36:37;;;;;;;2.40;1.55;;;;;;;5.43;89.05;97318.66;4466514;32;20137;-73
2021/12/02 00:39:10;;;;;;;1.08;0.98;;;;;;;5.50;88.86;97322.34;4466398;32;20105;-73
2021/12/02 00:41:38;;;;;;;2.13;1.30;;;;;;;5.52;88.60;97324.78;4466476;32;20156;-73
2021/12/02 00:44:06;;;;;;;2.25;1.10;;;;;;;5.65;87.76;97322.69;4466574;32;20165;-73
2021/12/02 00:46:34;;;;;;;1.83;1.27;;;;;;;5.73;87.58;97315.97;4466352;32;20127;-73
2021/12/02 00:49:04;;;;;;;3.08;1.30;;;;;;;5.66;87.76;97313.13;4466176;32;20100;-73
2021/12/02 00:51:35;;;;;;;5.00;1.10;;;;;;;5.74;87.50;97304.59;4466240;32;20128;-73
2021/12/02 00:54:07;;;;;;;2.72;1.27;;;;;;;5.71;87.42;97303.13;4466287;32;20117;-73
2021/12/02 00:56:35;;;;;;;1.95;1.17;;;;;;;5.60;88.29;97311.09;4495997;31;20370;-73
2021/12/02 00:59:04;;;;;;;3.53;1.00;;;;;;;5.60;88.35;97308.50;4500023;31;20497;-73
2021/12/02 01:01:36;;;;;;;3.12;1.42;;;;;;;5.55;88.55;97315.91;4500060;31;20430;-73
2021/12/02 01:04:15;;;;;;;5.47;1.73;;;;;;;5.54;88.75;97320.28;4500051;31;20115;-73
2021/12/02 01:06:42;;;;;;;2.25;1.05;;;;;;;5.63;88.53;97311.66;4498403;31;20504;-73
2021/12/02 01:09:11;;;;;;;4.62;1.75;;;;;;;5.72;87.87;97311.75;4500013;31;20151;-73
2021/12/02 01:11:39;;;;;;;3.25;1.48;;;;;;;5.69;88.04;97313.66;4499823;31;20142;-73
2021/12/02 01:14:07;;;;;;;5.35;1.50;;;;;;;5.83;86.97;97317.56;4499846;31;20450;-73
2021/12/02 01:16:35;;;;;;;1.58;1.10;;;;;;;6.05;86.02;97318.19;4499505;31;20133;-73
2021/12/02 01:19:03;;;;;;;3.25;1.00;;;;;;;5.96;86.29;97319.84;4499743;31;20119;-73
2021/12/02 01:21:31;;;;;;;2.20;1.50;;;;;;;6.00;85.93;97320.41;4499554;31;20417;-73
2021/12/02 01:24:00;;;;;;;2.37;1.60;;;;;;;6.00;86.00;97315.22;4499758;31;20157;-73
2021/12/02 01:26:29;;;;;;;1.73;1.30;;;;;;;5.97;86.03;97315.50;4499373;31;20110;-73
2021/12/02 01:28:57;;;;;;;2.97;1.30;;;;;;;5.92;86.21;97313.31;4499747;31;20127;-73
2021/12/02 01:31:31;;;;;;;2.17;1.17;;;;;;;5.95;86.01;97312.19;4501714;31;20097;-73
2021/12/02 01:34:01;;;;;;;3.80;1.10;;;;;;;5.92;85.85;97309.87;4501764;31;20110;-73
2021/12/02 01:36:34;;;;;;;2.35;1.23;;;;;;;5.90;86.07;97304.81;4501975;31;20226;-73
2021/12/02 01:39:04;;;;;;;2.60;1.17;;;;;;;5.88;85.92;97314.56;4501631;31;20075;-73
2021/12/02 01:41:36;;;;;;;4.93;1.37;;;;;;;5.90;85.91;97309.22;4501875;31;20107;-73
2021/12/02 01:44:09;;;;;;;5.05;1.60;;;;;;;5.83;85.98;97302.00;4501792;31;20076;-73
2021/12/02 01:46:38;;;;;;;2.12;1.33;;;;;;;5.85;85.79;97302.66;4501730;31;20096;-73
2021/12/02 01:49:06;;;;;;;3.42;1.52;;;;;;;5.84;85.75;97303.63;4501507;31;20080;-73
2021/12/02 01:51:47;;;;;;;2.72;1.27;;;;;;;5.82;85.70;97291.72;4500461;31;20131;-73
2021/12/02 01:54:17;;;;;;;3.40;1.30;;;;;;;5.84;85.39;97285.44;4501624;31;20842;-73
2021/12/02 01:56:49;;;;;;;3.47;1.30;;;;;;;5.91;85.10;97290.88;4501622;31;20098;-73
2021/12/02 01:59:26;;;;;;;3.97;1.10;;;;;;;5.95;84.80;97291.38;4501675;31;20497;-73
2021/12/02 02:01:56;;;;;;;4.45;1.27;;;;;;;5.98;84.45;97286.75;4501916;31;20116;-73
2021/12/02 02:04:24;;;;;;;3.92;1.30;;;;;;;5.94;84.57;97290.59;4501575;31;20154;-73
2021/12/02 02:06:59;;;;;;;2.42;1.50;;;;;;;5.95;84.69;97283.59;4501353;31;20088;-73
2021/12/02 02:09:34;;;;;;;2.35;1.40;;;;;;;5.79;85.21;97282.44;4501626;31;20428;-73
2021/12/02 02:12:06;;;;;;;2.95;1.37;;;;;;;5.83;85.13;97289.00;4501742;31;20115;-73
2021/12/02 02:14:34;;;;;;;3.75;1.90;;;;;;;5.78;85.25;97279.97;4501649;31;20085;-73
2021/12/02 02:17:10;;;;;;;4.75;1.45;;;;;;;5.65;86.06;97278.53;4501157;31;20473;-73
2021/12/02 02:19:38;;;;;;;3.97;1.70;;;;;;;5.68;86.14;97280.03;4501677;31;20113;-73
2021/12/02 02:22:05;;;;;;;4.37;1.40;;;;;;;5.64;86.34;97281.28;4501721;31;20152;-73
2021/12/02 02:24:32;;;;;;;4.55;1.80;;;;;;;5.57;86.86;97278.44;4501560;31;20168;-73
2021/12/02 02:27:01;;;;;;;2.85;1.77;;;;;;;5.55;86.74;97275.16;4501207;31;20108;-73
2021/12/02 02:32:29;;;;;;;4.12;1.60;;;;;;;5.62;86.43;97267.63;4501336;31;20080;-73
2021/12/02 02:34:56;;;;;;;4.37;1.70;;;;;;;5.47;87.20;97260.28;4501420;31;20093;-73
2021/12/02 02:37:24;;;;;;;3.72;1.40;;;;;;;5.47;87.29;97262.06;4501161;31;20088;-73
2021/12/02 02:39:51;;;;;;;4.72;1.33;;;;;;;5.59;86.90;97254.91;4501137;31;20449;-73
2021/12/02 02:42:23;;;;;;;1.95;1.35;;;;;;;5.52;86.96;97259.84;4500344;31;20095;-73
2021/12/02 02:44:51;;;;;;;2.97;1.50;;;;;;;5.44;87.42;97268.34;4499868;31;20506;-73
2021/12/02 02:47:18;;;;;;;3.40;1.45;;;;;;;5.48;87.39;97264.53;4500977;31;20131;-73
2021/12/02 02:49:48;;;;;;;4.07;1.35;;;;;;;5.41;87.62;97273.84;4501192;31;20096;-73
2021/12/02 02:52:15;;;;;;;3.03;1.45;;;;;;;5.39;87.90;97270.56;4501303;31;20119;-73
2021/12/02 02:54:42;;;;;;;2.72;1.27;;;;;;;5.39;87.98;97274.94;4501225;31;20116;-73
2021/12/02 02:57:12;;;;;;;3.42;1.30;;;;;;;5.36;87.98;97276.03;4499704;31;20088;-73
2021/12/02 02:59:56;;;;;;;3.95;1.90;;;;;;;5.35;88.12;97284.78;4501388;31;20429;-73
2021/12/02 03:05:04;;;;;;;6.00;2.10;;;;;;;5.34;88.40;97267.56;4501248;31;20434;-73
2021/12/02 03:07:39;;;;;;;2.42;1.30;;;;;;;5.33;88.39;97265.94;4500988;31;20147;-73
2021/12/02 03:10:32;;;;;;;5.75;1.30;;;;;;;5.28;88.77;97268.12;4487907;31;20084;-73
2021/12/02 03:13:11;;;;;;;2.10;1.35;;;;;;;5.26;88.96;97278.66;4501077;31;20163;-73
2021/12/02 03:18:25;;;;;;;3.25;1.27;;;;;;;5.29;88.78;97280.97;4500024;31;20096;-73
2021/12/02 03:20:52;;;;;;;4.68;1.67;;;;;;;5.30;88.60;97281.81;4500981;31;20080;-73
2021/12/02 03:23:19;;;;;;;1.85;1.23;;;;;;;5.30;88.70;97287.00;4500929;31;20402;-73
2021/12/02 03:25:48;;;;;;;4.25;1.80;;;;;;;5.22;89.02;97281.66;4501125;31;20577;-73
2021/12/02 03:28:15;;;;;;;3.97;1.50;;;;;;;5.29;88.95;97286.16;4500559;31;20084;-73
2021/12/02 03:30:42;;;;;;;4.90;1.50;;;;;;;5.36;88.65;97289.03;4501142;31;20092;-73
2021/12/02 03:33:10;;;;;;;3.22;1.80;;;;;;;5.35;88.52;97289.97;4501001;31;20732;-73
2021/12/02 03:35:41;;;;;;;3.87;2.58;;;;;;;5.26;89.17;97291.62;4501099;31;20080;-73
2021/12/02 03:38:22;;;;;;;4.07;2.10;;;;;;;5.14;89.91;97282.38;4500916;31;20092;-73
2021/12/02 03:40:49;;;;;;;2.60;1.60;;;;;;;5.19;89.82;97279.34;4500705;31;20564;-73
2021/12/02 03:43:16;;;;;;;6.07;2.97;;;;;;;5.19;89.86;97280.16;4500946;31;20092;-73
2021/12/02 03:45:49;;;;;;;7.65;2.80;;;;;;;5.22;89.72;97273.88;4500919;31;20105;-73
2021/12/02 03:48:17;;;;;;;5.12;2.45;;;;;;;5.22;89.54;97264.31;4500859;31;20562;-73
2021/12/02 03:50:44;;;;;;;4.22;1.90;;;;;;;5.26;89.55;97270.06;4500659;31;20120;-73
2021/12/02 03:53:11;;;;;;;4.43;1.77;;;;;;;5.31;89.21;97268.69;4500562;31;20092;-73
2021/12/02 03:55:38;;;;;;;2.72;1.75;;;;;;;5.41;88.51;97268.62;4500869;31;20134;-73
2021/12/02 03:58:05;;;;;;;3.62;1.52;;;;;;;5.36;88.98;97270.84;4500565;31;20122;-73
2021/12/02 04:00:33;;;;;;;2.25;1.62;;;;;;;5.38;89.09;97266.31;4500784;31;20123;-73
2021/12/02 04:03:01;;;;;;;3.22;1.55;;;;;;;5.42;89.08;97261.66;4500780;31;20124;-73
2021/12/02 04:05:28;;;;;;;2.42;1.50;;;;;;;5.41;89.62;97271.25;4500808;31;20520;-73
2021/12/02 04:07:55;;;;;;;2.17;1.35;;;;;;;5.44;89.66;97264.94;4500808;31;20805;-73
2021/12/02 04:10:24;;;;;;;2.75;1.60;;;;;;;5.48;89.66;97280.09;4500533;31;20197;-73
2021/12/02 04:15:33;;;;;;;2.12;1.30;;;;;;;5.54;90.01;97277.88;4500492;31;20114;-73
2021/12/02 04:18:00;;;;;;;2.37;1.40;;;;;;;5.45;90.89;97269.16;4500584;31;20106;-73
2021/12/02 04:20:27;;;;;;;3.03;1.40;;;;;;;5.39;91.36;97270.56;4500536;31;20088;-73
2021/12/02 04:22:56;;;;;;;3.03;1.52;;;;;;;5.38;91.57;97279.31;4500668;31;20115;-73
2021/12/02 04:25:24;;;;;;;2.22;1.15;;;;;;;5.33;91.95;97284.94;4500447;31;20088;-73
2021/12/02 04:27:53;;;;;;;4.55;1.40;;;;;;;5.30;92.23;97282.63;4500365;31;20130;-73
2021/12/02 04:30:25;;;;;;;3.78;1.48;;;;;;;5.31;92.37;97283.41;4500425;31;20088;-73
2021/12/02 04:32:54;;;;;;;3.30;1.10;;;;;;;5.29;92.59;97286.16;4500563;31;20091;-73
2021/12/02 04:35:22;;;;;;;3.70;1.30;;;;;;;5.24;93.07;97284.94;4500588;31;20602;-73
2021/12/02 04:37:51;;;;;;;4.00;1.45;;;;;;;5.21;93.19;97275.66;4500315;31;20131;-73
2021/12/02 04:40:21;;;;;;;2.75;1.60;;;;;;;5.23;93.22;97270.34;4499969;31;20100;-73
2021/12/02 04:42:49;;;;;;;2.10;1.17;;;;;;;5.23;93.31;97271.16;4500364;31;20087;-73
2021/12/02 04:45:16;;;;;;;6.50;1.50;;;;;;;5.23;93.36;97276.34;4500145;31;20092;-73
2021/12/02 04:47:43;;;;;;;2.33;1.20;;;;;;;5.25;93.30;97274.41;4499979;31;20114;-73
2021/12/02 04:50:11;;;;;;;4.70;2.10;;;;;;;5.29;93.20;97280.16;4500094;31;20414;-73
2021/12/02 04:52:39;;;;;;;3.53;1.60;;;;;;;5.27;93.28;97274.28;4499735;31;20088;-73
2021/12/02 04:55:07;;;;;;;3.17;1.30;;;;;;;5.22;93.63;97274.69;4500015;31;20450;-73
2021/12/02 04:57:35;;;;;;;2.00;1.30;;;;;;;5.20;93.60;97281.81;4500403;31;20574;-73
2021/12/02 05:00:05;;;;;;;2.95;1.40;;;;;;;5.12;94.46;97284.31;4499890;31;20108;-75
2021/12/02 05:02:32;;;;;;;1.92;1.15;;;;;;;5.15;94.40;97281.44;4500001;31;20103;-73
2021/12/02 05:05:00;;;;;;;3.60;1.67;;;;;;;5.10;94.63;97275.81;4500886;31;20096;-74
2021/12/02 05:07:27;;;;;;;3.95;1.37;;;;;;;5.09;94.86;97279.37;4501670;31;20114;-73
2021/12/02 05:09:54;;;;;;;5.18;1.10;;;;;;;5.18;94.37;97282.91;4501192;31;20445;-74
2021/12/02 05:12:21;;;;;;;2.83;1.70;;;;;;;5.18;94.15;97303.66;4500426;31;20096;-74
2021/12/02 05:14:48;;;;;;;2.53;1.45;;;;;;;5.16;94.24;97298.62;4501732;31;20171;-74
2021/12/02 05:17:16;;;;;;;3.33;1.80;;;;;;;5.23;93.79;97301.50;4501704;31;20130;-74
2021/12/02 05:19:44;;;;;;;3.35;1.52;;;;;;;5.30;93.62;97297.38;4497787;31;20089;-74
2021/12/02 05:22:11;;;;;;;4.40;1.75;;;;;;;5.29;93.31;97295.75;4495005;31;20092;-74
2021/12/02 05:24:38;;;;;;;2.60;1.40;;;;;;;5.18;94.38;97291.53;4501750;31;20087;-74
2021/12/02 05:27:06;;;;;;;6.03;1.60;;;;;;;5.15;95.13;97282.22;4501827;31;20722;-74
2021/12/02 05:29:33;;;;;;;5.87;1.50;;;;;;;5.23;95.01;97281.53;4501835;31;20547;-74
2021/12/02 05:32:00;;;;;;;1.87;1.15;;;;;;;5.44;94.90;97277.94;4501445;31;20088;-74
2021/12/02 05:34:28;;;;;;;4.68;2.25;;;;;;;5.53;95.04;97269.28;4500843;31;20123;-74
2021/12/02 05:36:55;;;;;;;5.35;1.75;;;;;;;5.43;96.05;97269.31;4500271;31;20118;-74
2021/12/02 05:39:22;;;;;;;3.20;1.55;;;;;;;5.43;97.31;97276.28;4499389;31;20456;-74
2021/12/02 05:41:53;;;;;;;2.80;1.30;;;;;;;5.58;96.81;97277.47;4500950;31;20153;-74
2021/12/02 05:44:21;;;;;;;2.60;1.48;;;;;;;5.64;97.29;97268.28;4494246;31;20176;-74
2021/12/02 05:46:48;;;;;;;4.90;1.45;;;;;;;5.81;96.34;97275.34;4500857;31;20114;-74
2021/12/02 05:49:16;;;;;;;3.35;1.40;;;;;;;5.80;96.24;97273.69;4500603;31;20099;-74
2021/12/02 05:51:45;;;;;;;2.83;1.40;;;;;;;5.74;96.76;97270.84;4500556;31;20092;-74
2021/12/02 05:54:12;;;;;;;3.92;1.70;;;;;;;5.70;97.77;97267.72;4500778;31;20096;-74
2021/12/02 05:56:40;;;;;;;2.10;1.37;;;;;;;5.66;98.37;97264.59;4500717;31;20438;-74
2021/12/02 05:59:08;;;;;;;2.40;1.40;;;;;;;5.75;97.91;97268.09;4501478;31;20091;-74
2021/12/02 06:01:37;;;;;;;3.35;1.40;;;;;;;5.70;98.75;97267.72;4499487;31;20095;-74
2021/12/02 06:04:05;;;;;;;3.37;1.98;;;;;;;5.62;99.04;97265.03;4495859;31;20152;-74
2021/12/02 06:06:32;;;;;;;2.95;1.30;;;;;;;5.57;99.25;97262.84;4490694;31;20147;-74
2021/12/02 06:08:59;;;;;;;3.53;1.60;;;;;;;5.57;99.93;97257.66;4494878;31;20096;-74
2021/12/02 06:11:26;;;;;;;5.55;2.53;;;;;;;5.46;100.00;97258.63;4495887;31;20649;-74
2021/12/02 06:13:54;;;;;;;7.07;2.12;;;;;;;5.45;100.00;97262.22;4490776;31;20084;-74
2021/12/02 06:16:21;;;;;;;2.83;1.48;;;;;;;5.50;100.00;97260.00;4490890;31;20556;-74
2021/12/02 06:18:49;;;;;;;3.00;1.62;;;;;;;5.46;100.00;97263.81;4487630;31;20116;-74
2021/12/02 06:21:16;;;;;;;3.25;1.70;;;;;;;5.46;100.00;97252.62;4485844;31;20093;-74
2021/12/02 06:23:43;;;;;;;3.50;2.28;;;;;;;5.53;100.00;97264.09;4497097;31;20134;-74
2021/12/02 06:26:11;;;;;;;2.85;1.58;;;;;;;5.55;100.00;97269.16;4498051;31;20092;-74
2021/12/02 06:28:38;;;;;;;5.47;1.95;;;;;;;5.65;100.00;97272.53;4490083;31;20461;-74
2021/12/02 06:31:06;;;;;;;6.30;2.78;;;;;;;5.51;100.00;97273.78;4496423;31;20107;-74
2021/12/02 06:33:34;;;;;;;3.37;2.42;;;;;;;5.51;100.00;97287.63;4499475;31;20108;-74
2021/12/02 06:36:01;;;;;;;3.75;2.47;;;;;;;5.52;100.00;97278.03;4500461;31;20127;-74
2021/12/02 06:38:28;;;;;;;4.43;2.80;;;;;;;5.50;100.00;97272.97;4499737;31;20096;-74
2021/12/02 06:40:55;;;;;;;14.85;3.70;;;;;;;5.61;100.00;97268.56;4494125;31;20153;-74
2021/12/02 06:43:22;;;;;;;6.50;3.78;;;;;;;5.60;100.00;97272.97;4493528;31;20095;-74
2021/12/02 06:45:49;;;;;;;7.45;4.00;;;;;;;5.67;99.53;97274.00;4499755;31;20126;-74
2021/12/02 06:48:17;;;;;;;6.80;3.70;;;;;;;5.66;100.00;97274.16;4492312;31;20169;-74
2021/12/02 06:50:44;;;;;;;9.27;4.90;;;;;;;5.62;100.00;97281.41;4493079;31;20630;-74
2021/12/02 06:53:16;;;;;;;8.80;4.57;;;;;;;5.64;99.83;97282.09;4493046;31;20115;-74
2021/12/02 06:55:44;;;;;;;9.65;4.50;;;;;;;5.56;99.73;97286.38;4489052;31;20104;-74
2021/12/02 06:58:11;;;;;;;7.95;4.53;;;;;;;5.54;99.62;97283.09;4485552;31;20119;-74
2021/12/02 07:00:38;;;;;;;8.13;4.12;;;;;;;5.59;99.09;97286.91;4500097;31;20119;-72
2021/12/02 07:03:06;;;;;;;10.07;4.40;;;;;;;5.57;99.05;97290.59;4494002;31;20161;-73
2021/12/02 07:05:34;;;;;;;11.32;5.70;;;;;;;5.48;98.95;97295.69;4490726;31;20084;-73
2021/12/02 07:08:02;;;;;;;11.98;5.50;;;;;;;5.46;98.88;97296.78;4482843;31;20123;-74
2021/12/02 07:10:31;;;;;;;7.53;4.97;;;;;;;5.52;98.74;97317.00;4489165;31;20561;-74
2021/12/02 07:13:00;;;;;;;6.90;4.55;;;;;;;5.49;98.19;97312.09;4500438;31;20118;-73
2021/12/02 07:18:00;;;;;;;9.77;5.45;;;;;;;5.48;98.68;97313.88;4500411;31;20164;-72
2021/12/02 07:20:29;;;;;;;7.12;3.72;;;;;;;5.53;99.12;97317.81;4490417;31;20083;-73
2021/12/02 07:22:58;;;;;;;4.93;2.60;;;;;;;5.57;99.35;97311.37;4486493;31;20143;-74
2021/12/02 07:25:26;;;;;;;3.92;2.50;;;;;;;5.57;99.80;97311.37;4491710;31;20088;-73
2021/12/02 07:27:54;;;;;;;5.82;2.92;;;;;;;5.55;100.00;97310.72;4498152;31;20112;-73
2021/12/02 07:30:21;;;;;;;4.90;2.72;;;;;;;5.58;100.00;97307.81;4495488;31;20088;-73
2021/12/02 07:32:53;;;;;;;6.70;3.65;;;;;;;5.63;100.00;97316.00;4490571;31;20092;-74
2021/12/02 07:35:21;;;;;;;7.15;4.12;;;;;;;5.45;100.00;97315.91;4496567;31;20096;-75
2021/12/02 07:37:51;;;;;;;4.97;2.78;;;;;;;5.43;100.00;97317.84;4487360;31;20131;-75
2021/12/02 07:40:20;;;;;;;4.62;2.15;;;;;;;5.47;100.00;97314.81;4488642;31;20611;-74
2021/12/02 07:42:51;;;;;;;3.12;1.80;;;;;;;5.50;100.00;97326.72;4494788;31;20092;-75
2021/12/02 07:45:20;;;;;;;2.83;1.77;;;;;;;5.47;100.00;97325.22;4497286;31;20170;-75
2021/12/02 07:47:48;;;;;;;3.47;1.90;;;;;;;5.50;100.00;97324.94;4495960;31;20096;-74
2021/12/02 07:50:17;;;;;;;2.58;1.80;;;;;;;5.59;100.00;97330.25;4494926;31;20107;-73
2021/12/02 07:52:52;;;;;;;2.87;2.03;;;;;;;5.65;100.00;97327.09;4496540;31;20100;-74
2021/12/02 07:55:22;;;;;;;4.68;1.92;;;;;;;5.71;100.00;97323.91;4498264;31;20163;-74
2021/12/02 07:57:50;;;;;;;4.07;1.73;;;;;;;5.74;100.00;97328.00;4498936;31;20169;-74
2021/12/02 08:00:26;;;;;;;3.08;1.58;;;;;;;5.83;100.00;97330.56;4498647;31;20104;-74
2021/12/02 08:02:54;;;;;;;2.40;1.80;;;;;;;5.87;100.00;97331.09;4494338;31;20123;-76
2021/12/02 08:05:23;;;;;;;4.15;1.90;;;;;;;5.94;100.00;97326.16;4495530;31;20619;-76
2021/12/02 08:07:51;;;;;;;3.62;1.67;;;;;;;5.93;100.00;97340.09;4495154;31;20156;-74
2021/12/02 08:10:20;;;;;;;5.37;1.98;;;;;;;5.84;100.00;97329.62;4496626;31;20100;-73
2021/12/02 08:12:48;;;;;;;4.70;1.60;;;;;;;5.80;100.00;97338.66;4492355;31;20164;-73
2021/12/02 08:15:21;;;;;;;4.10;1.92;;;;;;;5.75;100.00;97332.25;4495440;31;20100;-73
2021/12/02 08:17:49;;;;;;;3.35;1.67;;;;;;;5.78;100.00;97327.56;4497490;31;20618;-73
2021/12/02 08:20:17;;;;;;;4.45;1.80;;;;;;;5.82;100.00;97333.31;4495522;31;20474;-72
2021/12/02 08:22:45;;;;;;;3.25;1.80;;;;;;;5.84;100.00;97329.62;4494777;31;20539;-74
2021/12/02 08:25:13;;;;;;;18.58;7.75;;;;;;;5.90;100.00;97340.41;4494285;31;20084;-73
2021/12/02 08:27:41;;;;;;;4.22;2.78;;;;;;;5.93;100.00;97334.91;4498681;31;20126;-75
2021/12/02 08:30:10;;;;;;;5.12;2.78;;;;;;;5.98;100.00;97343.13;4489713;31;20088;-75
2021/12/02 08:32:41;;;;;;;4.35;2.17;;;;;;;6.10;100.00;97351.56;4494759;31;20150;-75
2021/12/02 08:35:13;;;;;;;6.35;2.67;;;;;;;6.13;100.00;97357.31;4497412;31;20084;-73
2021/12/02 08:37:44;;;;;;;3.72;2.12;;;;;;;6.11;100.00;97351.41;4495533;31;20092;-75
2021/12/02 08:40:16;;;;;;;5.45;2.33;;;;;;;5.99;100.00;97355.16;4493827;31;20095;-76
2021/12/02 08:42:44;;;;;;;2.80;1.90;;;;;;;6.02;100.00;97355.69;4492500;31;20126;-75
2021/12/02 08:45:13;;;;;;;4.05;2.47;;;;;;;6.04;100.00;97348.56;4496918;31;20122;-75
2021/12/02 08:47:46;;;;;;;3.72;2.30;;;;;;;6.02;100.00;97360.88;4496054;31;20559;-74
2021/12/02 08:50:15;;;;;;;6.10;2.05;;;;;;;6.08;100.00;97358.69;4499003;31;20188;-73
2021/12/02 08:52:43;;;;;;;6.62;2.67;;;;;;;6.14;100.00;97356.31;4497746;31;20452;-73
2021/12/02 08:55:10;;;;;;;4.05;2.20;;;;;;;6.30;100.00;97354.88;4492252;31;20104;-74
2021/12/02 08:57:47;;;;;;;4.45;2.37;;;;;;;6.39;100.00;97356.63;4497496;31;20095;-73
2021/12/02 09:00:17;;;;;;;5.47;2.58;;;;;;;6.46;100.00;97362.06;4494558;31;20100;-74
2021/12/02 09:02:44;;;;;;;3.58;2.47;;;;;;;6.48;100.00;97357.50;4495468;31;20088;-75
2021/12/02 09:05:13;;;;;;;4.28;2.25;;;;;;;6.57;100.00;97349.66;4496212;31;20096;-72
2021/12/02 09:07:40;;;;;;;6.05;2.17;;;;;;;6.70;100.00;97343.28;4486960;31;20484;-75
2021/12/02 09:10:08;;;;;;;3.00;2.17;;;;;;;6.67;100.00;97344.38;4496179;31;20469;-76
2021/12/02 09:12:36;;;;;;;5.28;2.15;;;;;;;6.82;100.00;97342.09;4494452;31;20124;-78
2021/12/02 09:15:05;;;;;;;4.68;2.20;;;;;;;6.85;100.00;97346.19;4500488;31;20096;-76
2021/12/02 09:17:32;;;;;;;4.47;2.37;;;;;;;6.82;100.00;97347.28;4497993;31;20104;-74
2021/12/02 09:19:59;;;;;;;5.60;2.33;;;;;;;6.63;100.00;97342.22;4496673;31;20442;-74
2021/12/02 09:22:26;;;;;;;4.45;1.92;;;;;;;6.76;100.00;97340.09;4493468;31;20100;-74
2021/12/02 09:24:53;;;;;;;4.18;2.03;;;;;;;6.59;100.00;97335.69;4498888;31;20509;-72
2021/12/02 09:27:21;;;;;;;3.10;2.00;;;;;;;6.59;100.00;97330.50;4485966;31;20113;-73
2021/12/02 09:29:48;;;;;;;4.22;1.75;;;;;;;6.62;100.00;97328.41;4492517;31;20092;-74
2021/12/02 09:32:15;;;;;;;6.80;2.28;;;;;;;6.61;100.00;97318.94;4492444;31;20139;-73
2021/12/02 09:34:43;;;;;;;4.18;1.90;;;;;;;6.77;100.00;97313.09;4492368;31;20139;-73
2021/12/02 09:37:10;;;;;;;3.75;1.67;;;;;;;6.59;100.00;97315.69;4492880;31;20123;-75
2021/12/02 09:39:37;;;;;;;5.15;2.85;;;;;;;6.59;100.00;97304.47;4496489;31;20277;-72
2021/12/02 09:42:11;;;;;;;4.12;2.50;;;;;;;6.72;100.00;97304.91;4496535;31;20112;-76
2021/12/02 09:44:55;;;;;;;11.82;5.00;;;;;;;6.61;100.00;97302.53;4494082;31;20174;-78
2021/12/02 09:47:22;;;;;;;9.02;4.10;;;;;;;6.57;100.00;97295.03;4504064;31;20093;-76
2021/12/02 09:49:50;;;;;;;3.37;2.00;;;;;;;6.45;100.00;97298.81;4500705;31;20092;-76
2021/12/02 09:52:19;;;;;;;4.50;2.10;;;;;;;6.57;100.00;97300.22;4507837;31;20103;-77
2021/12/02 09:54:58;;;;;;;3.62;2.00;;;;;;;6.66;100.00;97305.50;4492924;31;20417;-78
2021/12/02 09:57:29;;;;;;;4.93;2.55;;;;;;;6.71;100.00;97298.09;4491340;31;20088;-76
2021/12/02 09:59:57;;;;;;;5.30;2.90;;;;;;;6.62;100.00;97289.38;4502070;31;20111;-75
2021/12/02 10:02:24;;;;;;;7.85;3.20;;;;;;;6.56;100.00;97288.19;4501518;31;20100;-74
2021/12/02 10:05:00;;;;;;;5.97;3.53;;;;;;;6.56;100.00;97277.78;4497767;31;20103;-74
2021/12/02 10:10:08;;;;;;;6.68;3.20;;;;;;;6.43;100.00;97279.91;4498514;31;20092;-73
2021/12/02 10:12:39;;;;;;;6.43;3.55;;;;;;;6.30;100.00;97275.09;4497629;31;20142;-74
2021/12/02 10:15:13;;;;;;;5.95;3.83;;;;;;;6.19;100.00;97277.88;4499060;31;20122;-73
2021/12/02 10:23:18;;;;;;;6.12;2.80;;;;;;;6.16;100.00;97271.22;4496161;31;20134;-75
2021/12/02 10:25:55;;;;;;;8.02;2.50;;;;;;;6.32;100.00;97272.34;4496390;31;20103;-74
2021/12/02 10:28:23;;;;;;;3.33;2.30;;;;;;;6.38;100.00;97271.75;4497113;31;20087;-72
2021/12/02 10:31:10;;;;;;;2.53;1.77;;;;;;;6.36;100.00;97266.69;4501336;31;20096;-72
2021/12/02 10:33:38;;;;;;;4.15;1.73;;;;;;;6.51;100.00;97267.00;4490496;31;20559;-73
2021/12/02 10:36:25;;;;;;;2.28;1.60;;;;;;;6.32;100.00;97256.72;4497835;31;20130;-73
2021/12/02 10:38:53;;;;;;;4.62;1.98;;;;;;;6.38;100.00;97262.16;4495967;31;20087;-74
2021/12/02 10:41:27;;;;;;;3.53;1.17;;;;;;;6.49;100.00;97260.31;4507183;31;20120;-73
2021/12/02 10:44:13;;;;;;;2.75;1.60;;;;;;;6.37;100.00;97267.50;4496522;31;20156;-74
2021/12/02 10:47:05;;;;;;;4.55;2.17;;;;;;;6.33;100.00;97259.19;4499915;31;20127;-73
2021/12/02 10:49:46;;;;;;;4.18;2.50;;;;;;;6.35;100.00;97257.25;4486631;31;20102;-74
2021/12/02 10:52:16;;;;;;;3.15;1.95;;;;;;;6.25;100.00;97253.06;4499658;31;20198;-74
2021/12/02 10:54:46;;;;;;;5.78;2.55;;;;;;;6.27;100.00;97248.53;4493583;31;20139;-75
2021/12/02 10:57:19;;;;;;;5.68;2.90;;;;;;;6.26;100.00;97244.31;4496919;31;20118;-76
2021/12/02 10:59:52;;;;;;;5.90;3.50;;;;;;;6.23;100.00;97235.03;4514670;31;20096;-74
2021/12/02 11:02:31;;;;;;;5.05;3.25;;;;;;;6.11;100.00;97234.41;4489968;31;20119;-74
2021/12/02 11:05:05;;;;;;;6.72;2.67;;;;;;;6.12;100.00;97232.66;4486637;31;20084;-72
2021/12/02 11:07:34;;;;;;;;;;;;;;;6.17;100.00;97223.41;4498715;31;20155;-74
2021/12/02 11:10:05;;;;;;;4.28;2.00;;;;;;;6.08;100.00;97218.31;4485141;31;19980;-74
2021/12/02 11:12:35;;;;;;;4.12;1.50;;;;;;;5.98;100.00;97219.19;4496701;31;20092;-73
2021/12/02 11:15:21;;;;;;;1.25;0.88;;;;;;;6.08;100.00;97210.50;4501029;31;20088;-74
2021/12/02 11:17:49;;;;;;;1.12;0.60;;;;;;;6.12;100.00;97215.25;4498361;31;20516;-74
2021/12/02 11:20:23;;;;;;;1.50;0.43;;;;;;;6.07;100.00;97219.25;4516406;31;20126;-75
2021/12/02 11:23:01;;;;;;;1.45;0.70;;;;;;;5.90;100.00;97213.03;4504622;31;20498;-75
2021/12/02 11:25:29;;;;;;;1.12;0.52;;;;;;;5.85;100.00;97210.87;4495237;31;20566;-76
2021/12/02 11:28:02;;;;;;;1.45;0.52;;;;;;;5.80;100.00;97206.13;4493182;31;20453;-74
2021/12/02 11:30:30;;;;;;;1.77;0.30;;;;;;;5.82;100.00;97205.97;4498689;31;20114;-74
2021/12/02 11:33:04;;;;;;;0.32;0.30;;;;;;;5.68;100.00;97205.50;4496389;31;20100;-78
2021/12/02 11:35:35;;;;;;;4.57;0.40;;;;;;;5.61;100.00;97211.41;4500551;31;20465;-74
2021/12/02 11:38:09;;;;;;;1.15;0.55;;;;;;;5.70;100.00;97207.94;4506689;31;20088;-75
2021/12/02 11:40:38;;;;;;;2.70;1.25;;;;;;;5.53;100.00;97208.72;4492870;31;20587;-73
2021/12/02 11:43:08;;;;;;;1.87;0.82;;;;;;;5.73;100.00;97205.06;4498697;31;20126;-74
2021/12/02 11:45:43;;;;;;;8.02;0.50;;;;;;;5.70;100.00;97197.56;4497956;31;20134;-74
2021/12/02 11:48:12;;;;;;;1.95;0.68;;;;;;;5.64;100.00;97203.34;4496269;31;20118;-74
2021/12/02 11:50:40;;;;;;;0.40;0.40;;;;;;;5.44;100.00;97193.03;4496737;31;20123;-74
2021/12/02 11:53:07;;;;;;;1.87;0.88;;;;;;;5.50;100.00;97183.88;4499406;31;20450;-74
2021/12/02 11:55:40;;;;;;;4.20;1.65;;;;;;;5.47;100.00;97184.97;4495883;31;20107;-73
2021/12/02 11:58:08;;;;;;;3.72;1.27;;;;;;;5.53;100.00;97191.38;4494577;31;20107;-74
2021/12/02 12:00:36;;;;;;;0.40;0.32;;;;;;;5.48;100.00;97197.00;4501559;31;20096;-74
2021/12/02 12:03:09;;;;;;;0.98;0.65;;;;;;;5.51;100.00;97194.09;4497531;31;20104;-74
2021/12/02 12:05:45;;;;;;;2.17;0.70;;;;;;;5.50;100.00;97189.88;4499211;31;20122;-72
2021/12/02 12:08:36;;;;;;;3.70;1.12;;;;;;;5.44;100.00;97193.03;4497662;31;20419;-74
2021/12/02 12:11:28;;;;;;;8.88;3.45;;;;;;;5.39;100.00;97190.06;4494742;31;20105;-73
2021/12/02 12:14:03;;;;;;;24.65;8.90;;;;;;;5.49;100.00;97187.41;4497839;31;20120;-74
2021/12/02 12:16:35;;;;;;;10.68;4.12;;;;;;;5.39;100.00;97187.47;4489281;31;20100;-74
2021/12/02 12:19:17;;;;;;;1.90;0.93;;;;;;;5.36;100.00;97186.91;4499940;31;20553;-73